Las Vegas, Nevada
Traffic Map
Current Weather Conditions
Las Vegas, Nevada
Broken Clouds
Broken Clouds
43°
Feels Like: 43°
Wind Chill: 43° Ceiling: 25000
Heat Index: 43° Visibility: 10mi
Dew Point: Wind: 3mph
Humidity: 8% Direction: ° ()
Pressure: 29.87in Gusts: 0mph
Raw Report DataKLAS 272156Z VRB03KT 10SM FEW120 BKN250 43/01 A2987 RMK AO2 SLP079 T04280011
Traffic Incident Summary
Active as of:
Severity:
Category:
InformationThere was an issue retrieving the traffic information for this location. Please try a different location or try again shortly.
Advertisements
Track Severe Weather on mobile